createdAt,value
2022-10-21T00:02:13.201Z,98565.47
2022-10-21T00:04:40.925Z,98593.69
2022-10-21T00:07:08.612Z,98600.38
2022-10-21T00:09:36.328Z,98581.75
2022-10-21T00:12:04.315Z,98589.75
2022-10-21T00:14:32.268Z,98591.72
2022-10-21T00:17:01.483Z,98584.66
2022-10-21T00:19:29.232Z,98565.28
2022-10-21T00:21:56.915Z,98569.66
2022-10-21T00:24:24.611Z,98576.47
2022-10-21T00:26:52.267Z,98578.38
2022-10-21T00:31:54.935Z,98596.13
2022-10-21T00:34:28.493Z,98587.50
2022-10-21T00:36:58.663Z,98575.38
2022-10-21T00:39:26.360Z,98557.94
2022-10-21T00:41:54.036Z,98539.03
2022-10-21T00:44:22.036Z,98534.28
2022-10-21T00:46:53.845Z,98535.53
2022-10-21T00:49:32.633Z,98531.50
2022-10-21T00:52:02.986Z,98527.94
2022-10-21T00:54:32.142Z,98525.28
2022-10-21T00:57:00.453Z,98513.75
2022-10-21T00:59:32.103Z,98507.41
2022-10-21T01:01:59.807Z,98514.91
2022-10-21T01:04:28.965Z,98516.09
2022-10-21T01:06:58.019Z,98524.88
2022-10-21T01:09:26.342Z,98518.09
2022-10-21T01:11:54.787Z,98512.53
2022-10-21T01:14:38.653Z,98507.31
2022-10-21T01:17:40.294Z,98508.19
2022-10-21T01:20:45.199Z,98522.41
2022-10-21T01:23:55.727Z,98525.25
2022-10-21T01:27:03.525Z,98529.44
2022-10-21T01:30:20.855Z,98518.34
2022-10-21T01:33:02.612Z,98514.06
2022-10-21T01:35:38.298Z,98498.72
2022-10-21T01:38:11.071Z,98486.44
2022-10-21T01:40:46.457Z,98482.41
2022-10-21T01:43:20.671Z,98473.69
2022-10-21T01:45:51.535Z,98466.19
2022-10-21T01:48:25.511Z,98461.09
2022-10-21T01:50:57.876Z,98462.56
2022-10-21T01:53:30.438Z,98478.66
2022-10-21T01:55:59.864Z,98481.44
2022-10-21T01:58:31.134Z,98479.47
2022-10-21T02:01:01.983Z,98480.25
2022-10-21T02:03:34.321Z,98476.28
2022-10-21T02:06:02.016Z,98468.16
2022-10-21T02:08:29.973Z,98457.91
2022-10-21T02:11:04.383Z,98467.69
2022-10-21T02:13:34.839Z,98467.88
2022-10-21T02:16:08.024Z,98469.38
2022-10-21T02:18:37.111Z,98471.13
2022-10-21T02:21:09.557Z,98464.47
2022-10-21T02:23:43.276Z,98461.78
2022-10-21T02:26:11.738Z,98460.56
2022-10-21T02:31:20.215Z,98441.31
2022-10-21T02:34:00.354Z,98420.03
2022-10-21T02:36:37.159Z,98414.94
2022-10-21T02:39:10.287Z,98412.59
2022-10-21T02:41:41.552Z,98405.16
2022-10-21T02:44:09.801Z,98390.91
2022-10-21T02:46:40.584Z,98382.63
2022-10-21T02:49:09.981Z,98372.34
2022-10-21T02:51:37.739Z,98374.25
2022-10-21T02:54:05.404Z,98385.75
2022-10-21T02:56:35.344Z,98401.09
2022-10-21T02:59:03.191Z,98398.69
2022-10-21T03:01:30.930Z,98390.81
2022-10-21T03:03:58.649Z,98381.25
2022-10-21T03:06:28.033Z,98375.63
2022-10-21T03:08:55.760Z,98363.84
2022-10-21T03:11:23.481Z,98362.66
2022-10-21T03:13:51.100Z,98363.44
2022-10-21T03:18:51.585Z,98348.03
2022-10-21T03:21:19.478Z,98345.28
2022-10-21T03:23:48.769Z,98337.03
2022-10-21T03:26:16.429Z,98344.81
2022-10-21T03:28:44.105Z,98340.88
2022-10-21T03:31:11.928Z,98331.38
2022-10-21T03:33:39.699Z,98341.69
2022-10-21T03:36:08.113Z,98344.09
2022-10-21T03:38:35.876Z,98341.38
2022-10-21T03:41:05.085Z,98340.59
2022-10-21T03:43:32.751Z,98344.94
2022-10-21T03:46:00.507Z,98341.03
2022-10-21T03:48:28.500Z,98334.69
2022-10-21T03:50:56.910Z,98338.63
2022-10-21T03:53:42.153Z,98328.31
2022-10-21T03:56:12.747Z,98354.84
2022-10-21T03:58:40.804Z,98338.97
2022-10-21T04:01:11.959Z,98339.41
2022-10-21T04:03:39.960Z,98350.50
2022-10-21T04:06:07.768Z,98341.81
2022-10-21T04:08:35.498Z,98333.91
2022-10-21T04:11:06.749Z,98331.53
2022-10-21T04:13:35.890Z,98335.13
2022-10-21T04:16:05.643Z,98349.38
2022-10-21T04:18:33.312Z,98351.38
2022-10-21T04:21:01.126Z,98339.44
2022-10-21T04:23:28.773Z,98340.66
2022-10-21T04:25:56.588Z,98352.09
2022-10-21T04:28:24.257Z,98352.91
2022-10-21T04:30:53.749Z,98341.44
2022-10-21T04:33:21.445Z,98327.16
2022-10-21T04:35:49.284Z,98317.28
2022-10-21T04:38:17.083Z,98316.34
2022-10-21T04:40:44.752Z,98311.09
2022-10-21T04:43:12.434Z,98303.66
2022-10-21T04:45:40.559Z,98306.88
2022-10-21T04:48:09.635Z,98307.25
2022-10-21T04:50:37.387Z,98299.41
2022-10-21T04:53:05.299Z,98305.78
2022-10-21T04:55:33.035Z,98298.25
2022-10-21T04:58:00.727Z,98292.31
2022-10-21T05:00:28.412Z,98308.19
2022-10-21T05:02:56.127Z,98296.72
2022-10-21T05:05:25.182Z,98301.47
2022-10-21T05:07:52.870Z,98316.50
2022-10-21T05:10:22.297Z,98310.56
2022-10-21T05:12:49.988Z,98314.09
2022-10-21T05:15:17.911Z,98309.78
2022-10-21T05:17:45.670Z,98322.00
2022-10-21T05:20:13.587Z,98326.00
2022-10-21T05:22:42.690Z,98329.16
2022-10-21T05:25:10.916Z,98336.25
2022-10-21T05:27:38.855Z,98334.28
2022-10-21T05:30:07.477Z,98325.94
2022-10-21T05:32:35.614Z,98318.50
2022-10-21T05:35:03.648Z,98320.47
2022-10-21T05:37:31.377Z,98320.88
2022-10-21T05:40:00.377Z,98320.47
2022-10-21T05:42:28.146Z,98320.47
2022-10-21T05:44:56.006Z,98311.38
2022-10-21T05:47:24.318Z,98315.31
2022-10-21T05:49:52.894Z,98321.66
2022-10-21T05:52:20.586Z,98325.59
2022-10-21T05:54:48.601Z,98315.34
2022-10-21T05:57:17.632Z,98318.50
2022-10-21T05:59:45.303Z,98311.00
2022-10-21T06:02:13.125Z,98310.97
2022-10-21T06:04:40.838Z,98309.00
2022-10-21T06:07:08.646Z,98308.97
2022-10-21T06:09:37.680Z,98306.19
2022-10-21T06:12:06.625Z,98299.03
2022-10-21T06:14:36.555Z,98299.81
2022-10-21T06:17:04.594Z,98291.84
2022-10-21T06:19:32.563Z,98300.16
2022-10-21T06:22:00.295Z,98290.34
2022-10-21T06:24:28.040Z,98285.56
2022-10-21T06:26:55.783Z,98285.47
2022-10-21T06:29:23.611Z,98277.28
2022-10-21T06:31:54.303Z,98272.00
2022-10-21T06:34:22.461Z,98275.63
2022-10-21T06:36:50.166Z,98290.09
2022-10-21T06:39:17.917Z,98306.97
2022-10-21T06:41:45.737Z,98318.50
2022-10-21T06:44:24.095Z,98325.94
2022-10-21T06:46:54.116Z,98327.56
2022-10-21T06:49:21.954Z,98333.53
2022-10-21T06:51:49.659Z,98333.91
2022-10-21T06:54:17.411Z,98340.66
2022-10-21T06:56:45.102Z,98360.44
2022-10-21T06:59:12.877Z,98378.25
2022-10-21T07:01:59.254Z,98402.38
2022-10-21T07:04:30.122Z,98400.84
2022-10-21T07:06:58.199Z,98386.56
2022-10-21T07:09:26.077Z,98365.59
2022-10-21T07:11:53.838Z,98362.84
2022-10-21T07:14:21.519Z,98353.31
2022-10-21T07:16:49.282Z,98349.78
2022-10-21T07:19:16.978Z,98355.72
2022-10-21T07:21:46.210Z,98358.06
2022-10-21T07:24:16.297Z,98341.47
2022-10-21T07:26:45.426Z,98329.94
2022-10-21T07:29:13.207Z,98324.81
2022-10-21T07:31:40.927Z,98315.69
2022-10-21T07:34:10.025Z,98316.50
2022-10-21T07:36:39.815Z,98307.75
2022-10-21T07:39:11.990Z,98310.38
2022-10-21T07:41:42.052Z,98326.31
2022-10-21T07:44:10.456Z,98349.72
2022-10-21T07:46:38.889Z,98354.91
2022-10-21T07:49:06.588Z,98365.97
2022-10-21T07:51:34.672Z,98379.84
2022-10-21T07:54:02.785Z,98385.81
2022-10-21T07:56:34.336Z,98369.16
2022-10-21T07:59:07.702Z,98352.53
2022-10-21T08:01:38.246Z,98332.63
2022-10-21T08:04:06.033Z,98325.78
2022-10-21T08:06:34.053Z,98320.63
2022-10-21T08:09:03.003Z,98326.38
2022-10-21T08:11:34.343Z,98316.75
2022-10-21T08:14:03.129Z,98310.75
2022-10-21T08:16:30.820Z,98321.22
2022-10-21T08:19:00.650Z,98322.53
2022-10-21T08:21:28.616Z,98339.84
2022-10-21T08:23:59.231Z,98350.16
2022-10-21T08:26:26.971Z,98360.47
2022-10-21T08:28:56.006Z,98362.03
2022-10-21T08:31:24.226Z,98360.44
2022-10-21T08:33:52.094Z,98358.06
2022-10-21T08:36:21.754Z,98365.22
2022-10-21T08:38:50.521Z,98373.53
2022-10-21T08:41:49.604Z,98370.38
2022-10-21T08:44:29.845Z,98367.13
2022-10-21T08:47:04.863Z,98357.41
2022-10-21T08:49:43.761Z,98337.63
2022-10-21T08:52:16.242Z,98337.75
2022-10-21T08:54:48.851Z,98338.56
2022-10-21T08:57:16.819Z,98345.97
2022-10-21T08:59:50.079Z,98344.75
2022-10-21T09:02:29.372Z,98384.63
2022-10-21T09:05:21.527Z,98394.50
2022-10-21T09:08:01.863Z,98409.91
2022-10-21T09:10:40.359Z,98431.34
2022-10-21T09:13:15.900Z,98425.81
2022-10-21T09:15:53.494Z,98424.97
2022-10-21T09:18:30.547Z,98412.88
2022-10-21T09:21:06.765Z,98402.50
2022-10-21T09:23:47.290Z,98413.84
2022-10-21T09:26:30.214Z,98421.81
2022-10-21T09:28:58.445Z,98456.22
2022-10-21T09:31:30.197Z,98477.94
2022-10-21T09:34:03.530Z,98453.09
2022-10-21T09:36:36.924Z,98484.31
2022-10-21T09:39:08.765Z,98485.09
2022-10-21T09:41:41.385Z,98504.06
2022-10-21T09:44:16.980Z,98505.19
2022-10-21T09:46:47.848Z,98497.00
2022-10-21T09:49:53.952Z,98471.72
2022-10-21T09:52:12.521Z,98491.88
2022-10-21T09:54:42.826Z,98500.84
2022-10-21T09:57:14.915Z,98498.47
2022-10-21T10:00:02.262Z,98506.47
2022-10-21T10:02:43.105Z,98500.13
2022-10-21T10:05:35.856Z,98496.19
2022-10-21T10:08:21.658Z,98505.69
2022-10-21T10:10:49.552Z,98510.88
2022-10-21T10:13:20.034Z,98509.72
2022-10-21T10:15:47.950Z,98501.44
2022-10-21T10:18:23.949Z,98507.44
2022-10-21T10:21:06.378Z,98495.09
2022-10-21T10:23:44.082Z,98485.06
2022-10-21T10:26:12.630Z,98475.72
2022-10-21T10:31:09.234Z,98451.16
2022-10-21T10:33:38.342Z,98454.88
2022-10-21T10:36:09.573Z,98443.75
2022-10-21T10:38:41.248Z,98440.44
2022-10-21T10:41:11.320Z,98441.06
2022-10-21T10:43:45.908Z,98439.53
2022-10-21T10:46:25.258Z,98439.69
2022-10-21T10:48:56.695Z,98455.56
2022-10-21T10:51:27.535Z,98451.06
2022-10-21T10:54:04.569Z,98448.53
2022-10-21T10:56:37.064Z,98444.47
2022-10-21T10:59:15.588Z,98452.94
2022-10-21T11:01:51.008Z,98438.06
2022-10-21T11:04:26.614Z,98445.19
2022-10-21T11:07:01.818Z,98450.44
2022-10-21T11:09:34.371Z,98462.69
2022-10-21T11:12:07.142Z,98458.97
2022-10-21T11:14:35.489Z,98453.53
2022-10-21T11:17:11.685Z,98454.53
2022-10-21T11:19:53.940Z,98442.53
2022-10-21T11:22:35.562Z,98430.22
2022-10-21T11:25:15.594Z,98431.66
2022-10-21T11:28:07.419Z,98440.69
2022-10-21T11:30:48.749Z,98460.44
2022-10-21T11:33:24.716Z,98466.97
2022-10-21T11:36:03.923Z,98468.78
2022-10-21T11:38:47.633Z,98470.31
2022-10-21T11:41:28.180Z,98468.56
2022-10-21T11:44:07.720Z,98466.41
2022-10-21T11:46:46.075Z,98472.25
2022-10-21T11:49:33.012Z,98462.31
2022-10-21T11:52:14.461Z,98454.19
2022-10-21T11:55:11.181Z,98447.97
2022-10-21T11:57:48.753Z,98432.16
2022-10-21T12:00:20.103Z,98439.19
2022-10-21T12:03:16.531Z,98421.94
2022-10-21T12:05:52.051Z,98437.94
2022-10-21T12:08:27.064Z,98433.19
2022-10-21T12:11:00.801Z,98438.94
2022-10-21T12:13:32.620Z,98436.28
2022-10-21T12:16:03.363Z,98441.50
2022-10-21T12:18:31.583Z,98426.72
2022-10-21T12:21:00.723Z,98427.88
2022-10-21T12:23:32.470Z,98417.81
2022-10-21T12:26:17.623Z,98430.34
2022-10-21T12:28:52.338Z,98426.63
2022-10-21T12:31:31.959Z,98433.28
2022-10-21T12:33:59.960Z,98436.06
2022-10-21T12:36:43.420Z,98442.28
2022-10-21T12:39:18.309Z,98440.72
2022-10-21T12:41:47.837Z,98431.25
2022-10-21T12:44:23.361Z,98426.34
2022-10-21T12:46:53.404Z,98418.03
2022-10-21T12:49:25.001Z,98421.59
2022-10-21T12:51:57.817Z,98427.75
2022-10-21T12:54:30.741Z,98424.69
2022-10-21T12:57:05.458Z,98426.41
2022-10-21T12:59:36.753Z,98415.34
2022-10-21T13:02:20.912Z,98413.13
2022-10-21T13:04:51.409Z,98412.56
2022-10-21T13:07:48.139Z,98410.16
2022-10-21T13:10:35.267Z,98423.38
2022-10-21T13:13:30.309Z,98408.31
2022-10-21T13:15:58.416Z,98405.44
2022-10-21T13:18:54.791Z,98409.78
2022-10-21T13:21:25.673Z,98403.03
2022-10-21T13:23:54.727Z,98396.97
2022-10-21T13:26:30.038Z,98386.94
2022-10-21T13:29:02.232Z,98378.09
2022-10-21T13:31:30.795Z,98389.19
2022-10-21T13:33:59.004Z,98377.63
2022-10-21T13:39:09.571Z,98366.19
2022-10-21T13:41:38.894Z,98373.47
2022-10-21T13:44:08.350Z,98393.00
2022-10-21T13:46:40.851Z,98396.13
2022-10-21T13:49:27.856Z,98381.22
2022-10-21T13:51:55.578Z,98386.41
2022-10-21T13:54:23.305Z,98388.47
2022-10-21T13:56:52.313Z,98397.09
2022-10-21T13:59:24.524Z,98396.22
2022-10-21T14:01:54.013Z,98389.25
2022-10-21T14:04:23.907Z,98397.59
2022-10-21T14:06:54.020Z,98394.25
2022-10-21T14:09:24.958Z,98388.59
2022-10-21T14:11:57.962Z,98381.28
2022-10-21T14:14:27.947Z,98385.03
2022-10-21T14:16:57.554Z,98389.53
2022-10-21T14:19:29.037Z,98386.06
2022-10-21T14:21:59.420Z,98375.72
2022-10-21T14:24:29.988Z,98369.53
2022-10-21T14:26:59.305Z,98371.91
2022-10-21T14:29:29.039Z,98371.69
2022-10-21T14:31:58.011Z,98383.16
2022-10-21T14:34:27.434Z,98384.66
2022-10-21T14:37:09.234Z,98370.34
2022-10-21T14:39:40.082Z,98373.47
2022-10-21T14:42:14.033Z,98363.91
2022-10-21T14:44:43.683Z,98369.00
2022-10-21T14:47:18.514Z,98373.22
2022-10-21T14:49:49.388Z,98357.47
2022-10-21T14:52:21.640Z,98356.13
2022-10-21T14:54:53.875Z,98357.09
2022-10-21T14:57:39.057Z,98368.63
2022-10-21T15:00:10.181Z,98366.16
2022-10-21T15:02:39.287Z,98360.41
2022-10-21T15:05:29.822Z,98381.88
2022-10-21T15:08:16.469Z,98388.47
2022-10-21T15:10:44.244Z,98384.91
2022-10-21T15:13:20.433Z,98389.41
2022-10-21T15:15:54.045Z,98383.44
2022-10-21T15:18:24.584Z,98381.84
2022-10-21T15:20:58.082Z,98364.44
2022-10-21T15:23:30.254Z,98359.22
2022-10-21T15:26:01.279Z,98372.38
2022-10-21T15:28:33.036Z,98375.56
2022-10-21T15:31:02.409Z,98368.47
2022-10-21T15:33:32.637Z,98377.22
2022-10-21T15:36:01.443Z,98377.53
2022-10-21T15:38:29.240Z,98363.69
2022-10-21T15:40:56.980Z,98372.00
2022-10-21T15:43:24.695Z,98355.31
2022-10-21T15:45:54.532Z,98373.25
2022-10-21T15:48:23.079Z,98358.28
2022-10-21T15:50:50.844Z,98364.59
2022-10-21T15:53:18.617Z,98364.56
2022-10-21T15:55:46.324Z,98362.63
2022-10-21T15:58:14.093Z,98369.81
2022-10-21T16:00:41.891Z,98370.66
2022-10-21T16:03:10.969Z,98353.56
2022-10-21T16:05:39.521Z,98351.16
2022-10-21T16:08:07.221Z,98353.16
2022-10-21T16:10:37.368Z,98357.91
2022-10-21T16:13:05.202Z,98355.50
2022-10-21T16:15:32.890Z,98357.47
2022-10-21T16:18:01.134Z,98355.94
2022-10-21T16:20:32.142Z,98354.28
2022-10-21T16:23:02.966Z,98360.22
2022-10-21T16:25:31.145Z,98368.16
2022-10-21T16:27:58.902Z,98375.78
2022-10-21T16:30:29.717Z,98375.22
2022-10-21T16:32:58.122Z,98374.75
2022-10-21T16:35:26.549Z,98387.50
2022-10-21T16:37:56.569Z,98374.25
2022-10-21T16:40:27.052Z,98374.31
2022-10-21T16:42:54.903Z,98374.00
2022-10-21T16:45:24.612Z,98375.28
2022-10-21T16:47:56.603Z,98373.25
2022-10-21T16:50:29.990Z,98374.22
2022-10-21T16:53:01.902Z,98375.41
2022-10-21T16:55:29.873Z,98376.56
2022-10-21T16:57:57.742Z,98392.88
2022-10-21T17:00:25.507Z,98396.47
2022-10-21T17:02:53.798Z,98396.84
2022-10-21T17:05:22.394Z,98394.09
2022-10-21T17:07:50.282Z,98405.88
2022-10-21T17:10:19.616Z,98388.56
2022-10-21T17:12:47.482Z,98387.91
2022-10-21T17:15:16.737Z,98374.56
2022-10-21T17:17:44.439Z,98364.28
2022-10-21T17:20:12.463Z,98370.84
2022-10-21T17:22:40.148Z,98360.16
2022-10-21T17:25:08.575Z,98358.28
2022-10-21T17:27:37.954Z,98355.22
2022-10-21T17:30:07.177Z,98362.50
2022-10-21T17:32:36.509Z,98362.69
2022-10-21T17:35:04.440Z,98367.31
2022-10-21T17:37:32.301Z,98370.09
2022-10-21T17:39:59.988Z,98367.41
2022-10-21T17:42:27.789Z,98364.00
2022-10-21T17:44:58.210Z,98368.09
2022-10-21T17:47:25.968Z,98367.72
2022-10-21T17:49:53.722Z,98360.84
2022-10-21T17:52:21.461Z,98360.22
2022-10-21T17:54:49.233Z,98370.53
2022-10-21T17:57:17.000Z,98376.44
2022-10-21T17:59:45.169Z,98369.97
2022-10-21T18:02:17.259Z,98363.75
2022-10-21T18:04:45.083Z,98361.94
2022-10-21T18:07:16.944Z,98362.03
2022-10-21T18:09:45.593Z,98351.03
2022-10-21T18:12:14.097Z,98351.19
2022-10-21T18:14:42.185Z,98352.97
2022-10-21T18:17:09.984Z,98344.31
2022-10-21T18:19:39.544Z,98356.34
2022-10-21T18:22:07.249Z,98348.53
2022-10-21T18:24:34.979Z,98351.81
2022-10-21T18:27:02.837Z,98347.63
2022-10-21T18:29:30.523Z,98344.63
2022-10-21T18:31:58.309Z,98350.47
2022-10-21T18:34:26.575Z,98354.13
2022-10-21T18:36:56.609Z,98353.31
2022-10-21T18:39:24.379Z,98351.34
2022-10-21T18:41:53.539Z,98336.69
2022-10-21T18:44:22.979Z,98333.94
2022-10-21T18:46:52.497Z,98361.22
2022-10-21T18:49:23.009Z,98363.22
2022-10-21T18:51:50.862Z,98354.50
2022-10-21T18:54:19.953Z,98353.72
2022-10-21T18:56:47.765Z,98348.97
2022-10-21T18:59:15.594Z,98337.75
2022-10-21T19:01:43.377Z,98338.63
2022-10-21T19:06:40.607Z,98340.91
2022-10-21T19:09:12.813Z,98346.53
2022-10-21T19:11:42.491Z,98354.50
2022-10-21T19:14:13.885Z,98360.44
2022-10-21T19:16:42.615Z,98368.78
2022-10-21T19:19:10.385Z,98369.56
2022-10-21T19:21:38.457Z,98355.22
2022-10-21T19:24:06.580Z,98352.06
2022-10-21T19:26:36.900Z,98346.78
2022-10-21T19:29:09.592Z,98344.19
2022-10-21T19:31:38.477Z,98346.75
2022-10-21T19:34:06.976Z,98353.25
2022-10-21T19:36:34.790Z,98360.06
2022-10-21T19:39:02.688Z,98365.97
2022-10-21T19:41:30.647Z,98375.09
2022-10-21T19:43:59.398Z,98364.81
2022-10-21T19:46:30.669Z,98357.28
2022-10-21T19:48:58.975Z,98360.84
2022-10-21T19:51:27.213Z,98357.69
2022-10-21T19:53:58.297Z,98359.91
2022-10-21T19:56:29.660Z,98360.81
2022-10-21T19:59:02.340Z,98369.56
2022-10-21T20:01:32.591Z,98364.78
2022-10-21T20:04:01.361Z,98353.38
2022-10-21T20:06:30.934Z,98349.28
2022-10-21T20:09:01.236Z,98347.72
2022-10-21T20:11:29.959Z,98366.53
2022-10-21T20:13:57.866Z,98371.44
2022-10-21T20:16:27.756Z,98376.97
2022-10-21T20:18:58.601Z,98372.88
2022-10-21T20:21:26.870Z,98372.69
2022-10-21T20:23:55.093Z,98380.66
2022-10-21T20:26:24.072Z,98388.94
2022-10-21T20:28:52.210Z,98387.78
2022-10-21T20:31:20.237Z,98384.59
2022-10-21T20:33:49.930Z,98386.97
2022-10-21T20:36:21.699Z,98396.50
2022-10-21T20:38:51.443Z,98395.69
2022-10-21T20:41:23.995Z,98403.22
2022-10-21T20:43:52.234Z,98396.09
2022-10-21T20:46:22.510Z,98404.81
2022-10-21T20:48:52.125Z,98385.78
2022-10-21T20:51:23.858Z,98388.97
2022-10-21T20:53:53.474Z,98386.59
2022-10-21T20:56:21.935Z,98383.44
2022-10-21T20:58:50.222Z,98388.16
2022-10-21T21:01:22.099Z,98385.25
2022-10-21T21:03:51.053Z,98389.22
2022-10-21T21:06:19.170Z,98402.16
2022-10-21T21:09:08.197Z,98398.38
2022-10-21T21:11:36.628Z,98400.47
2022-10-21T21:14:05.357Z,98396.25
2022-10-21T21:16:33.164Z,98403.59
2022-10-21T21:19:03.225Z,98404.88
2022-10-21T21:21:32.462Z,98395.25
2022-10-21T21:24:02.137Z,98411.84
2022-10-21T21:26:31.937Z,98409.53
2022-10-21T21:29:00.475Z,98422.19
2022-10-21T21:31:30.316Z,98422.69
2022-10-21T21:33:58.079Z,98431.06
2022-10-21T21:36:26.054Z,98438.97
2022-10-21T21:38:54.364Z,98439.19
2022-10-21T21:41:25.150Z,98447.78
2022-10-21T21:43:54.679Z,98438.78
2022-10-21T21:46:24.012Z,98453.13
2022-10-21T21:48:55.346Z,98446.41
2022-10-21T21:51:24.306Z,98453.72
2022-10-21T21:53:52.372Z,98439.09
2022-10-21T21:56:21.431Z,98447.63
2022-10-21T21:58:51.638Z,98444.00
2022-10-21T22:01:21.441Z,98445.63
2022-10-21T22:03:51.724Z,98449.56
2022-10-21T22:06:20.539Z,98444.38
2022-10-21T22:08:48.454Z,98430.16
2022-10-21T22:11:18.403Z,98418.63
2022-10-21T22:13:46.452Z,98419.44
2022-10-21T22:16:16.428Z,98417.06
2022-10-21T22:18:44.709Z,98432.47
2022-10-21T22:21:15.047Z,98435.63
2022-10-21T22:23:43.616Z,98434.81
2022-10-21T22:26:12.795Z,98444.69
2022-10-21T22:28:41.303Z,98429.75
2022-10-21T22:31:11.480Z,98420.16
2022-10-21T22:33:41.372Z,98429.16
2022-10-21T22:36:09.602Z,98434.28
2022-10-21T22:38:37.278Z,98437.00
2022-10-21T22:41:12.260Z,98444.09
2022-10-21T22:43:40.867Z,98447.97
2022-10-21T22:46:22.198Z,98447.91
2022-10-21T22:48:57.985Z,98435.31
2022-10-21T22:51:25.763Z,98438.94
2022-10-21T22:53:56.278Z,98447.63
2022-10-21T22:56:25.536Z,98446.84
2022-10-21T22:58:53.254Z,98438.16
2022-10-21T23:01:21.044Z,98442.50
2022-10-21T23:03:48.895Z,98438.53
2022-10-21T23:06:17.895Z,98442.78
2022-10-21T23:08:45.637Z,98442.81
2022-10-21T23:11:13.348Z,98461.78
2022-10-21T23:13:51.177Z,98469.09
2022-10-21T23:16:28.840Z,98504.50
2022-10-21T23:18:56.616Z,98507.72
2022-10-21T23:21:25.745Z,98501.56
2022-10-21T23:23:53.756Z,98498.25
2022-10-21T23:26:21.503Z,98514.94
2022-10-21T23:28:49.187Z,98528.09
2022-10-21T23:31:16.889Z,98535.22
2022-10-21T23:33:44.621Z,98526.75
2022-10-21T23:36:12.290Z,98519.38
2022-10-21T23:38:41.467Z,98520.81
2022-10-21T23:41:09.152Z,98515.41
2022-10-21T23:43:36.858Z,98501.84
2022-10-21T23:46:06.624Z,98503.84
2022-10-21T23:48:34.340Z,98496.31
2022-10-21T23:51:02.057Z,98504.94
2022-10-21T23:53:29.766Z,98512.75
2022-10-21T23:55:58.818Z,98501.25
2022-10-21T23:58:26.534Z,98490.63
